sensor_id;sensor_type;location;lat;lon;timestamp;P1;durP1;ratioP1;P2;durP2;ratioP2
59147;SDS011;44930;52.878;6.168;2023-02-19T00:00:03;38.53;;;18.25;;
59147;SDS011;44930;52.878;6.168;2023-02-19T00:02:29;30.67;;;19.25;;
59147;SDS011;44930;52.878;6.168;2023-02-19T00:04:55;40.03;;;20.17;;
59147;SDS011;44930;52.878;6.168;2023-02-19T00:07:21;37.63;;;17.23;;
59147;SDS011;44930;52.878;6.168;2023-02-19T00:09:46;36.35;;;17.20;;
59147;SDS011;44930;52.878;6.168;2023-02-19T00:12:12;37.05;;;17.20;;
59147;SDS011;44930;52.878;6.168;2023-02-19T00:14:37;39.63;;;19.02;;
59147;SDS011;44930;52.878;6.168;2023-02-19T00:17:03;35.03;;;17.33;;
59147;SDS011;44930;52.878;6.168;2023-02-19T00:19:28;28.20;;;17.88;;
59147;SDS011;44930;52.878;6.168;2023-02-19T00:21:54;36.90;;;16.63;;
59147;SDS011;44930;52.878;6.168;2023-02-19T00:24:20;28.23;;;11.30;;
59147;SDS011;44930;52.878;6.168;2023-02-19T00:26:46;25.52;;;15.05;;
59147;SDS011;44930;52.878;6.168;2023-02-19T00:29:17;30.73;;;14.13;;
59147;SDS011;44930;52.878;6.168;2023-02-19T00:31:44;29.65;;;14.98;;
59147;SDS011;44930;52.878;6.168;2023-02-19T00:34:10;34.25;;;15.13;;
59147;SDS011;44930;52.878;6.168;2023-02-19T00:36:37;23.50;;;14.55;;
59147;SDS011;44930;52.878;6.168;2023-02-19T00:39:04;27.17;;;15.18;;
59147;SDS011;44930;52.878;6.168;2023-02-19T00:41:30;30.80;;;12.48;;
59147;SDS011;44930;52.878;6.168;2023-02-19T00:43:57;32.72;;;12.07;;
59147;SDS011;44930;52.878;6.168;2023-02-19T00:46:29;21.30;;;11.77;;
59147;SDS011;44930;52.878;6.168;2023-02-19T00:48:59;24.83;;;13.45;;
59147;SDS011;44930;52.878;6.168;2023-02-19T00:51:26;27.65;;;13.82;;
59147;SDS011;44930;52.878;6.168;2023-02-19T00:53:54;23.73;;;11.05;;
59147;SDS011;44930;52.878;6.168;2023-02-19T00:56:20;29.13;;;11.40;;
59147;SDS011;44930;52.878;6.168;2023-02-19T00:58:46;18.58;;;9.88;;
59147;SDS011;44930;52.878;6.168;2023-02-19T01:01:12;21.83;;;7.32;;
59147;SDS011;44930;52.878;6.168;2023-02-19T01:03:38;16.23;;;7.00;;
59147;SDS011;44930;52.878;6.168;2023-02-19T01:06:05;17.55;;;5.72;;
59147;SDS011;44930;52.878;6.168;2023-02-19T01:08:32;18.52;;;6.30;;
59147;SDS011;44930;52.878;6.168;2023-02-19T01:10:58;14.13;;;3.70;;
59147;SDS011;44930;52.878;6.168;2023-02-19T01:13:25;13.68;;;4.10;;
59147;SDS011;44930;52.878;6.168;2023-02-19T01:15:52;11.43;;;3.88;;
59147;SDS011;44930;52.878;6.168;2023-02-19T01:18:18;11.05;;;3.83;;
59147;SDS011;44930;52.878;6.168;2023-02-19T01:20:44;8.13;;;3.22;;
59147;SDS011;44930;52.878;6.168;2023-02-19T01:23:10;13.25;;;4.18;;
59147;SDS011;44930;52.878;6.168;2023-02-19T01:25:38;14.18;;;3.33;;
59147;SDS011;44930;52.878;6.168;2023-02-19T01:28:05;11.95;;;3.20;;
59147;SDS011;44930;52.878;6.168;2023-02-19T01:30:33;13.13;;;4.07;;
59147;SDS011;44930;52.878;6.168;2023-02-19T01:32:59;13.50;;;3.30;;
59147;SDS011;44930;52.878;6.168;2023-02-19T01:35:25;12.95;;;4.45;;
59147;SDS011;44930;52.878;6.168;2023-02-19T01:37:50;10.57;;;3.58;;
59147;SDS011;44930;52.878;6.168;2023-02-19T01:40:16;5.30;;;2.28;;
59147;SDS011;44930;52.878;6.168;2023-02-19T01:42:42;9.02;;;3.15;;
59147;SDS011;44930;52.878;6.168;2023-02-19T01:45:14;17.73;;;3.97;;
59147;SDS011;44930;52.878;6.168;2023-02-19T01:47:42;12.18;;;5.25;;
59147;SDS011;44930;52.878;6.168;2023-02-19T01:50:09;12.52;;;3.53;;
59147;SDS011;44930;52.878;6.168;2023-02-19T01:52:35;4.75;;;1.77;;
59147;SDS011;44930;52.878;6.168;2023-02-19T01:55:02;14.32;;;4.70;;
59147;SDS011;44930;52.878;6.168;2023-02-19T01:57:32;13.50;;;4.97;;
59147;SDS011;44930;52.878;6.168;2023-02-19T02:00:03;14.00;;;4.10;;
59147;SDS011;44930;52.878;6.168;2023-02-19T02:02:32;6.45;;;2.85;;
59147;SDS011;44930;52.878;6.168;2023-02-19T02:04:58;14.77;;;4.78;;
59147;SDS011;44930;52.878;6.168;2023-02-19T02:07:24;7.43;;;3.53;;
59147;SDS011;44930;52.878;6.168;2023-02-19T02:10:10;9.15;;;4.40;;
59147;SDS011;44930;52.878;6.168;2023-02-19T02:12:45;18.25;;;5.03;;
59147;SDS011;44930;52.878;6.168;2023-02-19T02:15:12;15.77;;;5.13;;
59147;SDS011;44930;52.878;6.168;2023-02-19T02:28:52;14.95;;;5.65;;
59147;SDS011;44930;52.878;6.168;2023-02-19T02:31:41;17.33;;;4.38;;
59147;SDS011;44930;52.878;6.168;2023-02-19T02:34:12;16.60;;;5.47;;
59147;SDS011;44930;52.878;6.168;2023-02-19T02:36:43;7.90;;;3.25;;
59147;SDS011;44930;52.878;6.168;2023-02-19T02:39:12;12.32;;;5.05;;
59147;SDS011;44930;52.878;6.168;2023-02-19T02:41:44;15.00;;;4.80;;
59147;SDS011;44930;52.878;6.168;2023-02-19T02:44:34;13.07;;;4.75;;
59147;SDS011;44930;52.878;6.168;2023-02-19T02:47:00;11.90;;;5.35;;
59147;SDS011;44930;52.878;6.168;2023-02-19T02:49:29;14.63;;;5.30;;
59147;SDS011;44930;52.878;6.168;2023-02-19T02:51:55;16.75;;;6.95;;
59147;SDS011;44930;52.878;6.168;2023-02-19T02:54:23;12.25;;;5.03;;
59147;SDS011;44930;52.878;6.168;2023-02-19T02:57:10;17.88;;;4.88;;
59147;SDS011;44930;52.878;6.168;2023-02-19T02:59:38;11.10;;;4.72;;
59147;SDS011;44930;52.878;6.168;2023-02-19T03:02:10;16.25;;;7.53;;
59147;SDS011;44930;52.878;6.168;2023-02-19T03:07:48;12.75;;;4.93;;
59147;SDS011;44930;52.878;6.168;2023-02-19T03:10:42;15.85;;;6.18;;
59147;SDS011;44930;52.878;6.168;2023-02-19T03:13:12;13.95;;;5.10;;
59147;SDS011;44930;52.878;6.168;2023-02-19T03:16:05;12.75;;;4.30;;
59147;SDS011;44930;52.878;6.168;2023-02-19T03:18:58;13.98;;;5.82;;
59147;SDS011;44930;52.878;6.168;2023-02-19T03:21:42;17.42;;;8.27;;
59147;SDS011;44930;52.878;6.168;2023-02-19T03:24:14;22.95;;;9.00;;
59147;SDS011;44930;52.878;6.168;2023-02-19T03:27:01;17.60;;;7.90;;
59147;SDS011;44930;52.878;6.168;2023-02-19T03:29:29;28.77;;;9.60;;
59147;SDS011;44930;52.878;6.168;2023-02-19T03:32:03;26.08;;;8.57;;
59147;SDS011;44930;52.878;6.168;2023-02-19T03:34:33;23.15;;;8.32;;
59147;SDS011;44930;52.878;6.168;2023-02-19T03:37:05;33.92;;;8.80;;
59147;SDS011;44930;52.878;6.168;2023-02-19T03:39:39;25.50;;;9.43;;
59147;SDS011;44930;52.878;6.168;2023-02-19T03:47:32;32.20;;;11.85;;
59147;SDS011;44930;52.878;6.168;2023-02-19T03:50:24;26.73;;;10.90;;
59147;SDS011;44930;52.878;6.168;2023-02-19T03:53:11;26.75;;;10.40;;
59147;SDS011;44930;52.878;6.168;2023-02-19T04:01:27;33.30;;;14.32;;
59147;SDS011;44930;52.878;6.168;2023-02-19T04:03:55;27.63;;;10.40;;
59147;SDS011;44930;52.878;6.168;2023-02-19T04:06:33;34.78;;;12.40;;
59147;SDS011;44930;52.878;6.168;2023-02-19T04:09:02;33.83;;;12.02;;
59147;SDS011;44930;52.878;6.168;2023-02-19T04:11:30;36.80;;;12.05;;
59147;SDS011;44930;52.878;6.168;2023-02-19T04:14:01;32.53;;;14.40;;
59147;SDS011;44930;52.878;6.168;2023-02-19T04:16:37;29.98;;;12.60;;
59147;SDS011;44930;52.878;6.168;2023-02-19T04:19:07;29.63;;;13.23;;
59147;SDS011;44930;52.878;6.168;2023-02-19T04:21:37;21.85;;;10.38;;
59147;SDS011;44930;52.878;6.168;2023-02-19T04:24:11;35.47;;;13.23;;
59147;SDS011;44930;52.878;6.168;2023-02-19T04:26:40;26.58;;;10.30;;
59147;SDS011;44930;52.878;6.168;2023-02-19T04:29:06;26.40;;;11.85;;
59147;SDS011;44930;52.878;6.168;2023-02-19T04:31:32;27.85;;;10.68;;
59147;SDS011;44930;52.878;6.168;2023-02-19T04:34:00;29.55;;;12.57;;
59147;SDS011;44930;52.878;6.168;2023-02-19T04:36:27;28.20;;;11.70;;
59147;SDS011;44930;52.878;6.168;2023-02-19T04:38:53;32.55;;;12.35;;
59147;SDS011;44930;52.878;6.168;2023-02-19T04:41:19;32.95;;;12.57;;
59147;SDS011;44930;52.878;6.168;2023-02-19T04:43:44;26.15;;;11.48;;
59147;SDS011;44930;52.878;6.168;2023-02-19T04:46:10;29.15;;;11.60;;
59147;SDS011;44930;52.878;6.168;2023-02-19T04:48:35;23.67;;;11.02;;
59147;SDS011;44930;52.878;6.168;2023-02-19T04:51:05;33.42;;;12.27;;
59147;SDS011;44930;52.878;6.168;2023-02-19T04:53:31;22.38;;;10.95;;
59147;SDS011;44930;52.878;6.168;2023-02-19T04:55:57;25.90;;;10.90;;
59147;SDS011;44930;52.878;6.168;2023-02-19T04:58:36;16.25;;;7.47;;
59147;SDS011;44930;52.878;6.168;2023-02-19T05:01:02;12.00;;;6.68;;
59147;SDS011;44930;52.878;6.168;2023-02-19T05:03:28;8.52;;;5.70;;
59147;SDS011;44930;52.878;6.168;2023-02-19T05:05:54;8.13;;;4.82;;
59147;SDS011;44930;52.878;6.168;2023-02-19T05:08:19;7.53;;;5.30;;
59147;SDS011;44930;52.878;6.168;2023-02-19T05:10:45;5.97;;;4.43;;
59147;SDS011;44930;52.878;6.168;2023-02-19T05:13:11;6.53;;;3.78;;
59147;SDS011;44930;52.878;6.168;2023-02-19T05:15:36;9.23;;;4.20;;
59147;SDS011;44930;52.878;6.168;2023-02-19T05:18:02;4.85;;;3.20;;
59147;SDS011;44930;52.878;6.168;2023-02-19T05:20:28;7.18;;;3.13;;
59147;SDS011;44930;52.878;6.168;2023-02-19T05:22:53;5.30;;;3.45;;
59147;SDS011;44930;52.878;6.168;2023-02-19T05:25:20;3.97;;;2.50;;
59147;SDS011;44930;52.878;6.168;2023-02-19T05:27:45;5.20;;;2.53;;
59147;SDS011;44930;52.878;6.168;2023-02-19T05:30:11;3.17;;;2.15;;
59147;SDS011;44930;52.878;6.168;2023-02-19T05:32:37;4.25;;;2.60;;
59147;SDS011;44930;52.878;6.168;2023-02-19T05:35:03;4.93;;;2.55;;
59147;SDS011;44930;52.878;6.168;2023-02-19T05:37:28;5.03;;;2.45;;
59147;SDS011;44930;52.878;6.168;2023-02-19T05:39:54;4.10;;;2.08;;
59147;SDS011;44930;52.878;6.168;2023-02-19T05:42:19;4.00;;;2.40;;
59147;SDS011;44930;52.878;6.168;2023-02-19T05:44:45;3.67;;;2.20;;
59147;SDS011;44930;52.878;6.168;2023-02-19T05:47:11;4.82;;;2.10;;
59147;SDS011;44930;52.878;6.168;2023-02-19T05:49:36;3.33;;;2.03;;
59147;SDS011;44930;52.878;6.168;2023-02-19T05:52:02;3.47;;;2.00;;
59147;SDS011;44930;52.878;6.168;2023-02-19T05:54:28;3.17;;;2.17;;
59147;SDS011;44930;52.878;6.168;2023-02-19T05:56:54;3.78;;;2.00;;
59147;SDS011;44930;52.878;6.168;2023-02-19T05:59:20;6.35;;;2.83;;
59147;SDS011;44930;52.878;6.168;2023-02-19T06:01:48;3.75;;;2.35;;
59147;SDS011;44930;52.878;6.168;2023-02-19T06:04:15;4.50;;;2.50;;
59147;SDS011;44930;52.878;6.168;2023-02-19T06:06:43;4.13;;;2.75;;
59147;SDS011;44930;52.878;6.168;2023-02-19T06:09:09;5.65;;;2.72;;
59147;SDS011;44930;52.878;6.168;2023-02-19T06:11:35;3.88;;;2.53;;
59147;SDS011;44930;52.878;6.168;2023-02-19T06:14:01;5.63;;;3.03;;
59147;SDS011;44930;52.878;6.168;2023-02-19T06:16:27;4.32;;;2.72;;
59147;SDS011;44930;52.878;6.168;2023-02-19T06:18:53;4.35;;;2.60;;
59147;SDS011;44930;52.878;6.168;2023-02-19T06:21:19;4.65;;;2.67;;
59147;SDS011;44930;52.878;6.168;2023-02-19T06:23:44;7.07;;;3.05;;
59147;SDS011;44930;52.878;6.168;2023-02-19T06:26:11;8.00;;;3.03;;
59147;SDS011;44930;52.878;6.168;2023-02-19T06:28:39;4.22;;;3.00;;
59147;SDS011;44930;52.878;6.168;2023-02-19T06:31:06;6.72;;;3.80;;
59147;SDS011;44930;52.878;6.168;2023-02-19T06:33:33;7.32;;;4.03;;
59147;SDS011;44930;52.878;6.168;2023-02-19T06:36:00;5.40;;;3.90;;
59147;SDS011;44930;52.878;6.168;2023-02-19T06:38:26;7.43;;;4.40;;
59147;SDS011;44930;52.878;6.168;2023-02-19T06:40:52;5.60;;;3.67;;
59147;SDS011;44930;52.878;6.168;2023-02-19T06:43:18;5.93;;;4.20;;
59147;SDS011;44930;52.878;6.168;2023-02-19T06:45:43;5.97;;;3.85;;
59147;SDS011;44930;52.878;6.168;2023-02-19T06:48:09;4.65;;;3.38;;
59147;SDS011;44930;52.878;6.168;2023-02-19T06:50:35;8.93;;;4.53;;
59147;SDS011;44930;52.878;6.168;2023-02-19T06:53:00;8.80;;;4.18;;
59147;SDS011;44930;52.878;6.168;2023-02-19T06:55:26;7.18;;;4.45;;
59147;SDS011;44930;52.878;6.168;2023-02-19T06:57:51;6.97;;;4.57;;
59147;SDS011;44930;52.878;6.168;2023-02-19T07:00:17;7.63;;;2.83;;
59147;SDS011;44930;52.878;6.168;2023-02-19T07:02:42;3.40;;;2.53;;
59147;SDS011;44930;52.878;6.168;2023-02-19T07:05:08;4.32;;;2.67;;
59147;SDS011;44930;52.878;6.168;2023-02-19T07:07:33;3.90;;;2.47;;
59147;SDS011;44930;52.878;6.168;2023-02-19T07:09:59;4.28;;;2.13;;
59147;SDS011;44930;52.878;6.168;2023-02-19T07:12:25;3.13;;;2.22;;
59147;SDS011;44930;52.878;6.168;2023-02-19T07:14:50;4.57;;;1.90;;
59147;SDS011;44930;52.878;6.168;2023-02-19T07:17:17;5.10;;;2.80;;
59147;SDS011;44930;52.878;6.168;2023-02-19T07:19:42;2.67;;;1.73;;
59147;SDS011;44930;52.878;6.168;2023-02-19T07:22:08;3.25;;;1.73;;
59147;SDS011;44930;52.878;6.168;2023-02-19T07:24:33;1.83;;;1.15;;
59147;SDS011;44930;52.878;6.168;2023-02-19T07:26:59;3.28;;;1.10;;
59147;SDS011;44930;52.878;6.168;2023-02-19T07:29:25;2.45;;;1.23;;
59147;SDS011;44930;52.878;6.168;2023-02-19T07:31:50;2.78;;;1.23;;
59147;SDS011;44930;52.878;6.168;2023-02-19T07:34:16;2.75;;;1.20;;
59147;SDS011;44930;52.878;6.168;2023-02-19T07:36:41;1.83;;;1.08;;
59147;SDS011;44930;52.878;6.168;2023-02-19T07:39:09;1.70;;;0.80;;
59147;SDS011;44930;52.878;6.168;2023-02-19T07:41:37;1.70;;;1.10;;
59147;SDS011;44930;52.878;6.168;2023-02-19T07:44:03;2.00;;;1.20;;
59147;SDS011;44930;52.878;6.168;2023-02-19T07:46:29;1.50;;;1.00;;
59147;SDS011;44930;52.878;6.168;2023-02-19T07:48:54;2.55;;;1.25;;
59147;SDS011;44930;52.878;6.168;2023-02-19T07:51:20;3.15;;;1.00;;
59147;SDS011;44930;52.878;6.168;2023-02-19T07:53:47;2.53;;;0.80;;
59147;SDS011;44930;52.878;6.168;2023-02-19T07:56:17;1.60;;;1.08;;
59147;SDS011;44930;52.878;6.168;2023-02-19T07:58:43;5.32;;;1.55;;
59147;SDS011;44930;52.878;6.168;2023-02-19T08:01:14;4.97;;;1.20;;
59147;SDS011;44930;52.878;6.168;2023-02-19T08:03:40;3.92;;;1.00;;
59147;SDS011;44930;52.878;6.168;2023-02-19T08:06:07;1.23;;;0.90;;
59147;SDS011;44930;52.878;6.168;2023-02-19T08:08:32;1.00;;;0.63;;
59147;SDS011;44930;52.878;6.168;2023-02-19T08:11:01;1.08;;;0.47;;
59147;SDS011;44930;52.878;6.168;2023-02-19T08:13:47;0.68;;;0.50;;
59147;SDS011;44930;52.878;6.168;2023-02-19T08:16:14;1.13;;;0.40;;
59147;SDS011;44930;52.878;6.168;2023-02-19T08:18:41;1.85;;;0.70;;
59147;SDS011;44930;52.878;6.168;2023-02-19T08:21:08;4.18;;;0.70;;
59147;SDS011;44930;52.878;6.168;2023-02-19T08:23:34;0.98;;;0.50;;
59147;SDS011;44930;52.878;6.168;2023-02-19T08:26:00;2.97;;;0.80;;
59147;SDS011;44930;52.878;6.168;2023-02-19T08:28:26;0.70;;;0.60;;
59147;SDS011;44930;52.878;6.168;2023-02-19T08:30:52;1.17;;;0.50;;
59147;SDS011;44930;52.878;6.168;2023-02-19T08:33:22;1.17;;;0.65;;
59147;SDS011;44930;52.878;6.168;2023-02-19T08:35:47;2.00;;;1.20;;
59147;SDS011;44930;52.878;6.168;2023-02-19T08:38:13;1.05;;;0.50;;
59147;SDS011;44930;52.878;6.168;2023-02-19T08:40:40;1.02;;;0.60;;
59147;SDS011;44930;52.878;6.168;2023-02-19T08:43:10;0.68;;;0.38;;
59147;SDS011;44930;52.878;6.168;2023-02-19T08:45:39;1.80;;;0.52;;
59147;SDS011;44930;52.878;6.168;2023-02-19T08:48:06;0.60;;;0.45;;
59147;SDS011;44930;52.878;6.168;2023-02-19T08:50:32;2.13;;;0.40;;
59147;SDS011;44930;52.878;6.168;2023-02-19T08:52:58;1.17;;;0.40;;
59147;SDS011;44930;52.878;6.168;2023-02-19T08:55:24;1.10;;;0.47;;
59147;SDS011;44930;52.878;6.168;2023-02-19T08:57:50;2.15;;;0.80;;
59147;SDS011;44930;52.878;6.168;2023-02-19T09:00:16;3.53;;;0.77;;
59147;SDS011;44930;52.878;6.168;2023-02-19T09:02:42;1.10;;;0.35;;
59147;SDS011;44930;52.878;6.168;2023-02-19T09:05:08;2.05;;;0.63;;
59147;SDS011;44930;52.878;6.168;2023-02-19T09:07:35;1.10;;;0.57;;
59147;SDS011;44930;52.878;6.168;2023-02-19T09:10:01;0.95;;;0.50;;
59147;SDS011;44930;52.878;6.168;2023-02-19T09:12:27;1.80;;;0.68;;
59147;SDS011;44930;52.878;6.168;2023-02-19T09:14:53;0.75;;;0.50;;
59147;SDS011;44930;52.878;6.168;2023-02-19T09:17:19;1.45;;;0.60;;
59147;SDS011;44930;52.878;6.168;2023-02-19T09:19:45;1.50;;;0.50;;
59147;SDS011;44930;52.878;6.168;2023-02-19T09:22:11;1.13;;;0.82;;
59147;SDS011;44930;52.878;6.168;2023-02-19T09:24:37;0.60;;;0.47;;
59147;SDS011;44930;52.878;6.168;2023-02-19T09:27:02;1.20;;;0.60;;
59147;SDS011;44930;52.878;6.168;2023-02-19T09:29:28;2.30;;;0.77;;
59147;SDS011;44930;52.878;6.168;2023-02-19T09:31:57;0.88;;;0.50;;
59147;SDS011;44930;52.878;6.168;2023-02-19T09:34:24;1.60;;;0.68;;
59147;SDS011;44930;52.878;6.168;2023-02-19T09:36:51;1.73;;;0.60;;
59147;SDS011;44930;52.878;6.168;2023-02-19T09:39:17;2.47;;;0.70;;
59147;SDS011;44930;52.878;6.168;2023-02-19T09:41:44;1.20;;;0.40;;
59147;SDS011;44930;52.878;6.168;2023-02-19T09:44:32;1.58;;;0.60;;
59147;SDS011;44930;52.878;6.168;2023-02-19T09:46:59;0.93;;;0.50;;
59147;SDS011;44930;52.878;6.168;2023-02-19T09:49:40;0.60;;;0.30;;
59147;SDS011;44930;52.878;6.168;2023-02-19T09:55:08;1.13;;;0.50;;
59147;SDS011;44930;52.878;6.168;2023-02-19T09:57:43;1.48;;;0.60;;
59147;SDS011;44930;52.878;6.168;2023-02-19T10:00:18;1.38;;;0.60;;
59147;SDS011;44930;52.878;6.168;2023-02-19T10:03:03;1.73;;;0.60;;
59147;SDS011;44930;52.878;6.168;2023-02-19T10:05:32;3.20;;;0.70;;
59147;SDS011;44930;52.878;6.168;2023-02-19T10:07:58;2.55;;;0.90;;
59147;SDS011;44930;52.878;6.168;2023-02-19T10:10:28;1.88;;;0.85;;
59147;SDS011;44930;52.878;6.168;2023-02-19T10:13:10;4.10;;;0.60;;
59147;SDS011;44930;52.878;6.168;2023-02-19T10:15:46;0.65;;;0.57;;
59147;SDS011;44930;52.878;6.168;2023-02-19T10:18:14;2.08;;;0.70;;
59147;SDS011;44930;52.878;6.168;2023-02-19T10:20:41;2.05;;;0.60;;
59147;SDS011;44930;52.878;6.168;2023-02-19T10:23:07;1.55;;;0.70;;
59147;SDS011;44930;52.878;6.168;2023-02-19T10:25:35;2.17;;;0.98;;
59147;SDS011;44930;52.878;6.168;2023-02-19T10:28:08;1.63;;;0.65;;
59147;SDS011;44930;52.878;6.168;2023-02-19T10:30:38;2.00;;;0.73;;
59147;SDS011;44930;52.878;6.168;2023-02-19T10:35:35;2.28;;;0.70;;
59147;SDS011;44930;52.878;6.168;2023-02-19T10:38:03;1.30;;;0.47;;
59147;SDS011;44930;52.878;6.168;2023-02-19T10:40:33;1.58;;;0.73;;
59147;SDS011;44930;52.878;6.168;2023-02-19T10:43:00;0.82;;;0.55;;
59147;SDS011;44930;52.878;6.168;2023-02-19T10:45:37;1.27;;;0.60;;
59147;SDS011;44930;52.878;6.168;2023-02-19T10:48:17;1.52;;;0.50;;
59147;SDS011;44930;52.878;6.168;2023-02-19T10:50:52;2.90;;;0.70;;
59147;SDS011;44930;52.878;6.168;2023-02-19T10:53:23;2.28;;;0.70;;
59147;SDS011;44930;52.878;6.168;2023-02-19T10:56:13;1.13;;;0.68;;
59147;SDS011;44930;52.878;6.168;2023-02-19T10:58:40;2.47;;;0.93;;
59147;SDS011;44930;52.878;6.168;2023-02-19T11:03:34;3.42;;;1.02;;
59147;SDS011;44930;52.878;6.168;2023-02-19T11:06:01;1.60;;;0.93;;
59147;SDS011;44930;52.878;6.168;2023-02-19T11:08:28;3.30;;;1.30;;
59147;SDS011;44930;52.878;6.168;2023-02-19T11:10:57;2.25;;;1.23;;
59147;SDS011;44930;52.878;6.168;2023-02-19T11:13:27;3.20;;;0.50;;
59147;SDS011;44930;52.878;6.168;2023-02-19T11:15:56;2.78;;;1.52;;
59147;SDS011;44930;52.878;6.168;2023-02-19T11:18:31;0.90;;;0.40;;
59147;SDS011;44930;52.878;6.168;2023-02-19T11:21:00;3.63;;;0.60;;
59147;SDS011;44930;52.878;6.168;2023-02-19T11:23:35;2.42;;;0.47;;
59147;SDS011;44930;52.878;6.168;2023-02-19T11:26:14;2.05;;;0.60;;
59147;SDS011;44930;52.878;6.168;2023-02-19T11:28:43;2.40;;;0.60;;
59147;SDS011;44930;52.878;6.168;2023-02-19T11:31:13;3.70;;;0.50;;
59147;SDS011;44930;52.878;6.168;2023-02-19T11:33:58;2.88;;;0.95;;
59147;SDS011;44930;52.878;6.168;2023-02-19T11:38:58;1.45;;;0.40;;
59147;SDS011;44930;52.878;6.168;2023-02-19T11:41:49;3.05;;;0.80;;
59147;SDS011;44930;52.878;6.168;2023-02-19T11:44:34;2.08;;;0.77;;
59147;SDS011;44930;52.878;6.168;2023-02-19T11:49:52;2.40;;;0.95;;
59147;SDS011;44930;52.878;6.168;2023-02-19T11:53:26;3.80;;;0.98;;
59147;SDS011;44930;52.878;6.168;2023-02-19T11:58:16;4.45;;;1.40;;
59147;SDS011;44930;52.878;6.168;2023-02-19T12:01:13;0.98;;;0.63;;
59147;SDS011;44930;52.878;6.168;2023-02-19T12:06:37;1.38;;;0.70;;
59147;SDS011;44930;52.878;6.168;2023-02-19T12:09:45;1.65;;;0.75;;
59147;SDS011;44930;52.878;6.168;2023-02-19T12:12:38;2.03;;;1.05;;
59147;SDS011;44930;52.878;6.168;2023-02-19T12:25:52;2.67;;;0.80;;
59147;SDS011;44930;52.878;6.168;2023-02-19T12:28:41;2.08;;;0.80;;
59147;SDS011;44930;52.878;6.168;2023-02-19T12:39:36;2.73;;;0.90;;
59147;SDS011;44930;52.878;6.168;2023-02-19T12:42:41;2.40;;;0.90;;
59147;SDS011;44930;52.878;6.168;2023-02-19T12:45:29;1.38;;;0.77;;
59147;SDS011;44930;52.878;6.168;2023-02-19T12:48:22;3.13;;;1.08;;
59147;SDS011;44930;52.878;6.168;2023-02-19T12:50:56;2.72;;;0.90;;
59147;SDS011;44930;52.878;6.168;2023-02-19T12:53:39;3.08;;;0.85;;
59147;SDS011;44930;52.878;6.168;2023-02-19T12:56:18;3.45;;;0.80;;
59147;SDS011;44930;52.878;6.168;2023-02-19T12:58:52;5.32;;;0.82;;
59147;SDS011;44930;52.878;6.168;2023-02-19T13:01:22;5.25;;;0.82;;
59147;SDS011;44930;52.878;6.168;2023-02-19T13:06:45;3.03;;;1.15;;
59147;SDS011;44930;52.878;6.168;2023-02-19T13:11:47;3.78;;;0.90;;
59147;SDS011;44930;52.878;6.168;2023-02-19T13:14:26;4.72;;;0.95;;
59147;SDS011;44930;52.878;6.168;2023-02-19T13:17:05;2.55;;;0.80;;
59147;SDS011;44930;52.878;6.168;2023-02-19T13:22:41;3.92;;;1.05;;
59147;SDS011;44930;52.878;6.168;2023-02-19T13:36:32;2.58;;;0.70;;
59147;SDS011;44930;52.878;6.168;2023-02-19T13:38:59;5.03;;;0.50;;
59147;SDS011;44930;52.878;6.168;2023-02-19T13:41:30;1.50;;;0.47;;
59147;SDS011;44930;52.878;6.168;2023-02-19T13:43:58;1.20;;;0.77;;
59147;SDS011;44930;52.878;6.168;2023-02-19T13:46:32;1.42;;;0.60;;
59147;SDS011;44930;52.878;6.168;2023-02-19T13:49:38;2.78;;;0.63;;
59147;SDS011;44930;52.878;6.168;2023-02-19T13:51:56;2.25;;;0.65;;
59147;SDS011;44930;52.878;6.168;2023-02-19T13:54:27;1.23;;;0.50;;
59147;SDS011;44930;52.878;6.168;2023-02-19T13:59:46;3.00;;;0.80;;
59147;SDS011;44930;52.878;6.168;2023-02-19T14:04:47;2.20;;;1.10;;
59147;SDS011;44930;52.878;6.168;2023-02-19T14:19:47;2.35;;;0.93;;
59147;SDS011;44930;52.878;6.168;2023-02-19T14:27:56;4.18;;;1.25;;
59147;SDS011;44930;52.878;6.168;2023-02-19T14:30:24;4.55;;;1.45;;
59147;SDS011;44930;52.878;6.168;2023-02-19T14:32:52;3.15;;;1.35;;
59147;SDS011;44930;52.878;6.168;2023-02-19T14:35:22;3.45;;;1.08;;
59147;SDS011;44930;52.878;6.168;2023-02-19T14:37:52;4.82;;;0.73;;
59147;SDS011;44930;52.878;6.168;2023-02-19T14:40:21;4.05;;;0.95;;
59147;SDS011;44930;52.878;6.168;2023-02-19T14:42:48;3.05;;;0.93;;
59147;SDS011;44930;52.878;6.168;2023-02-19T14:45:17;3.25;;;0.82;;
59147;SDS011;44930;52.878;6.168;2023-02-19T14:47:45;2.58;;;0.80;;
59147;SDS011;44930;52.878;6.168;2023-02-19T14:50:14;1.50;;;0.70;;
59147;SDS011;44930;52.878;6.168;2023-02-19T14:52:48;2.30;;;0.60;;
59147;SDS011;44930;52.878;6.168;2023-02-19T14:55:31;8.90;;;2.05;;
59147;SDS011;44930;52.878;6.168;2023-02-19T14:58:02;4.85;;;1.48;;
59147;SDS011;44930;52.878;6.168;2023-02-19T15:00:32;4.53;;;0.93;;
59147;SDS011;44930;52.878;6.168;2023-02-19T15:02:59;2.72;;;1.08;;
59147;SDS011;44930;52.878;6.168;2023-02-19T15:05:33;5.28;;;0.98;;
59147;SDS011;44930;52.878;6.168;2023-02-19T15:08:07;3.72;;;0.90;;
59147;SDS011;44930;52.878;6.168;2023-02-19T15:10:36;4.18;;;1.35;;
59147;SDS011;44930;52.878;6.168;2023-02-19T15:13:06;3.97;;;1.23;;
59147;SDS011;44930;52.878;6.168;2023-02-19T15:15:36;2.35;;;0.70;;
59147;SDS011;44930;52.878;6.168;2023-02-19T15:18:04;3.67;;;0.75;;
59147;SDS011;44930;52.878;6.168;2023-02-19T15:20:31;2.17;;;0.98;;
59147;SDS011;44930;52.878;6.168;2023-02-19T15:23:00;2.15;;;1.00;;
59147;SDS011;44930;52.878;6.168;2023-02-19T15:25:31;2.22;;;0.80;;
59147;SDS011;44930;52.878;6.168;2023-02-19T15:33:24;2.85;;;0.65;;
59147;SDS011;44930;52.878;6.168;2023-02-19T15:35:55;4.20;;;0.80;;
59147;SDS011;44930;52.878;6.168;2023-02-19T15:38:24;1.48;;;0.70;;
59147;SDS011;44930;52.878;6.168;2023-02-19T15:40:50;4.82;;;0.70;;
59147;SDS011;44930;52.878;6.168;2023-02-19T15:43:22;5.97;;;1.17;;
59147;SDS011;44930;52.878;6.168;2023-02-19T15:45:52;6.78;;;1.23;;
59147;SDS011;44930;52.878;6.168;2023-02-19T15:48:23;5.13;;;1.10;;
59147;SDS011;44930;52.878;6.168;2023-02-19T15:50:54;3.28;;;1.95;;
59147;SDS011;44930;52.878;6.168;2023-02-19T15:53:24;4.72;;;1.00;;
59147;SDS011;44930;52.878;6.168;2023-02-19T15:55:58;3.63;;;1.20;;
59147;SDS011;44930;52.878;6.168;2023-02-19T15:58:29;3.42;;;0.85;;
59147;SDS011;44930;52.878;6.168;2023-02-19T16:03:47;3.95;;;1.05;;
59147;SDS011;44930;52.878;6.168;2023-02-19T16:06:14;4.15;;;1.20;;
59147;SDS011;44930;52.878;6.168;2023-02-19T16:08:44;4.18;;;1.33;;
59147;SDS011;44930;52.878;6.168;2023-02-19T16:19:43;4.30;;;1.57;;
59147;SDS011;44930;52.878;6.168;2023-02-19T16:22:13;3.80;;;1.30;;
59147;SDS011;44930;52.878;6.168;2023-02-19T16:24:59;4.53;;;1.65;;
59147;SDS011;44930;52.878;6.168;2023-02-19T16:30:21;4.80;;;1.55;;
59147;SDS011;44930;52.878;6.168;2023-02-19T16:35:56;3.70;;;1.30;;
59147;SDS011;44930;52.878;6.168;2023-02-19T16:38:21;6.05;;;1.02;;
59147;SDS011;44930;52.878;6.168;2023-02-19T16:45:41;5.95;;;1.38;;
59147;SDS011;44930;52.878;6.168;2023-02-19T16:48:08;4.35;;;1.45;;
59147;SDS011;44930;52.878;6.168;2023-02-19T16:50:35;7.18;;;1.52;;
59147;SDS011;44930;52.878;6.168;2023-02-19T16:53:01;5.75;;;1.90;;
59147;SDS011;44930;52.878;6.168;2023-02-19T16:55:28;7.65;;;1.95;;
59147;SDS011;44930;52.878;6.168;2023-02-19T16:58:01;2.53;;;0.95;;
59147;SDS011;44930;52.878;6.168;2023-02-19T17:00:27;9.68;;;1.50;;
59147;SDS011;44930;52.878;6.168;2023-02-19T17:02:56;5.55;;;1.73;;
59147;SDS011;44930;52.878;6.168;2023-02-19T17:05:22;5.10;;;1.70;;
59147;SDS011;44930;52.878;6.168;2023-02-19T17:07:51;10.10;;;1.77;;
59147;SDS011;44930;52.878;6.168;2023-02-19T17:10:18;6.03;;;2.33;;
59147;SDS011;44930;52.878;6.168;2023-02-19T17:12:46;5.50;;;1.38;;